createdAt,value
2023-01-17T00:01:22.386Z,8
2023-01-17T00:02:22.452Z,11
2023-01-17T00:03:22.377Z,7
2023-01-17T00:04:22.379Z,6
2023-01-17T00:05:22.380Z,7
2023-01-17T00:08:22.380Z,7
2023-01-17T00:09:22.368Z,8
2023-01-17T00:10:22.374Z,6
2023-01-17T00:11:22.375Z,12
2023-01-17T00:12:22.370Z,7
2023-01-17T00:13:22.372Z,7
2023-01-17T00:15:22.376Z,8
2023-01-17T00:16:22.426Z,5
2023-01-17T00:17:22.371Z,8
2023-01-17T00:18:22.369Z,8
2023-01-17T00:20:22.366Z,7
2023-01-17T00:21:22.363Z,7
2023-01-17T00:22:22.374Z,7
2023-01-17T00:23:22.356Z,8
2023-01-17T00:24:22.364Z,8
2023-01-17T00:25:22.366Z,7
2023-01-17T00:26:22.390Z,8
2023-01-17T00:27:22.359Z,5
2023-01-17T00:28:22.408Z,4
2023-01-17T00:29:22.364Z,5
2023-01-17T00:30:22.361Z,7
2023-01-17T00:31:22.418Z,5
2023-01-17T00:32:22.365Z,4
2023-01-17T00:33:22.365Z,6
2023-01-17T00:34:22.368Z,5
2023-01-17T00:36:22.382Z,5
2023-01-17T00:37:22.360Z,5
2023-01-17T00:38:22.375Z,4
2023-01-17T00:39:22.357Z,4
2023-01-17T00:41:22.363Z,5
2023-01-17T00:43:22.359Z,5
2023-01-17T00:44:22.362Z,6
2023-01-17T00:45:22.372Z,5
2023-01-17T00:46:22.385Z,5
2023-01-17T00:47:22.359Z,4
2023-01-17T00:48:22.371Z,4
2023-01-17T00:49:22.372Z,4
2023-01-17T00:50:22.363Z,5
2023-01-17T00:52:22.362Z,9
2023-01-17T00:53:22.421Z,7
2023-01-17T00:54:22.363Z,12
2023-01-17T00:55:22.376Z,9
2023-01-17T00:57:22.393Z,8
2023-01-17T00:58:22.395Z,9
2023-01-17T00:59:22.515Z,10
2023-01-17T01:00:22.358Z,11
2023-01-17T01:02:22.503Z,8
2023-01-17T01:03:22.425Z,13
2023-01-17T01:04:22.359Z,7
2023-01-17T01:05:22.373Z,8
2023-01-17T01:06:23.126Z,5
2023-01-17T01:07:22.358Z,4
2023-01-17T01:08:22.358Z,3
2023-01-17T01:09:22.383Z,2
2023-01-17T01:10:22.361Z,2
2023-01-17T01:11:22.364Z,4
2023-01-17T01:12:22.361Z,3
2023-01-17T01:13:22.352Z,2
2023-01-17T01:14:22.368Z,2
2023-01-17T01:15:22.362Z,2
2023-01-17T01:16:22.413Z,2
2023-01-17T01:17:22.511Z,2
2023-01-17T01:18:22.351Z,2
2023-01-17T01:19:22.364Z,2
2023-01-17T01:20:22.367Z,2
2023-01-17T01:21:22.359Z,2
2023-01-17T01:22:22.355Z,1
2023-01-17T01:24:22.354Z,1
2023-01-17T01:25:22.351Z,1
2023-01-17T01:26:22.362Z,2
2023-01-17T01:27:22.352Z,2
2023-01-17T01:30:22.357Z,2
2023-01-17T01:31:22.486Z,1
2023-01-17T01:32:22.360Z,2
2023-01-17T01:33:22.352Z,1
2023-01-17T01:34:22.381Z,2
2023-01-17T01:35:22.359Z,5
2023-01-17T01:36:22.358Z,3
2023-01-17T01:37:22.362Z,2
2023-01-17T01:38:22.350Z,3
2023-01-17T01:39:22.355Z,3
2023-01-17T01:40:22.353Z,4
2023-01-17T01:41:22.354Z,2
2023-01-17T01:42:22.360Z,3
2023-01-17T01:43:22.420Z,3
2023-01-17T01:44:22.380Z,2
2023-01-17T01:45:22.375Z,2
2023-01-17T01:46:22.366Z,3
2023-01-17T01:47:22.369Z,3
2023-01-17T01:49:22.357Z,2
2023-01-17T01:50:22.387Z,3
2023-01-17T01:51:22.357Z,4
2023-01-17T01:52:22.377Z,2
2023-01-17T01:53:22.866Z,4
2023-01-17T01:54:22.375Z,3
2023-01-17T01:55:22.375Z,1
2023-01-17T01:56:22.353Z,2
2023-01-17T01:57:22.350Z,1
2023-01-17T01:58:22.362Z,2
2023-01-17T01:59:22.370Z,3
2023-01-17T02:00:22.350Z,1
2023-01-17T02:01:22.471Z,1
2023-01-17T02:02:22.366Z,1
2023-01-17T02:03:22.355Z,1
2023-01-17T02:04:22.353Z,1
2023-01-17T02:05:22.345Z,2
2023-01-17T02:06:22.345Z,2
2023-01-17T02:07:22.352Z,1
2023-01-17T02:08:22.380Z,1
2023-01-17T02:09:22.341Z,1
2023-01-17T02:10:22.355Z,1
2023-01-17T02:11:22.353Z,1
2023-01-17T02:12:22.344Z,1
2023-01-17T02:13:22.355Z,1
2023-01-17T02:14:22.352Z,1
2023-01-17T02:15:22.451Z,2
2023-01-17T02:16:22.424Z,1
2023-01-17T02:18:22.347Z,1
2023-01-17T02:19:22.366Z,1
2023-01-17T02:20:22.344Z,1
2023-01-17T02:21:22.361Z,2
2023-01-17T02:22:22.348Z,2
2023-01-17T02:23:22.375Z,1
2023-01-17T02:24:22.360Z,1
2023-01-17T02:26:22.348Z,1
2023-01-17T02:27:22.342Z,2
2023-01-17T02:28:22.351Z,1
2023-01-17T02:29:22.343Z,0
2023-01-17T02:32:22.346Z,0
2023-01-17T02:34:22.400Z,0
2023-01-17T02:35:22.411Z,0
2023-01-17T02:36:22.338Z,0
2023-01-17T02:37:22.342Z,0
2023-01-17T02:39:22.337Z,0
2023-01-17T02:40:22.362Z,0
2023-01-17T02:41:22.346Z,0
2023-01-17T02:42:22.367Z,0
2023-01-17T02:43:22.340Z,0
2023-01-17T02:44:22.360Z,0
2023-01-17T02:45:22.344Z,0
2023-01-17T02:47:22.349Z,0
2023-01-17T02:48:22.343Z,0
2023-01-17T02:49:22.343Z,0
2023-01-17T02:50:22.347Z,0
2023-01-17T02:51:22.335Z,0
2023-01-17T02:53:28.868Z,0
2023-01-17T02:55:22.335Z,1
2023-01-17T02:56:22.349Z,0
2023-01-17T02:57:22.368Z,0
2023-01-17T02:58:22.359Z,0
2023-01-17T03:00:22.407Z,0
2023-01-17T03:01:22.539Z,0
2023-01-17T03:02:22.446Z,0
2023-01-17T03:03:22.347Z,0
2023-01-17T03:05:22.327Z,3
2023-01-17T03:06:22.336Z,1
2023-01-17T03:07:22.336Z,1
2023-01-17T03:08:22.342Z,1
2023-01-17T03:10:22.336Z,1
2023-01-17T03:11:22.346Z,2
2023-01-17T03:12:22.422Z,1
2023-01-17T03:13:22.342Z,3
2023-01-17T03:14:22.332Z,1
2023-01-17T03:16:22.402Z,1
2023-01-17T03:17:22.331Z,2
2023-01-17T03:18:22.347Z,1
2023-01-17T03:19:22.338Z,1
2023-01-17T03:20:22.781Z,1
2023-01-17T03:21:22.351Z,1
2023-01-17T03:22:22.349Z,2
2023-01-17T03:23:22.345Z,1
2023-01-17T03:24:22.329Z,1
2023-01-17T03:25:22.452Z,1
2023-01-17T03:26:22.329Z,1
2023-01-17T03:27:22.335Z,1
2023-01-17T03:28:22.331Z,1
2023-01-17T03:29:22.331Z,1
2023-01-17T03:30:22.426Z,1
2023-01-17T03:31:22.328Z,1
2023-01-17T03:33:22.360Z,3
2023-01-17T03:35:22.334Z,1
2023-01-17T03:36:22.325Z,1
2023-01-17T03:37:22.387Z,1
2023-01-17T03:38:22.325Z,1
2023-01-17T03:39:22.326Z,1
2023-01-17T03:40:22.347Z,2
2023-01-17T03:41:22.327Z,1
2023-01-17T03:42:22.342Z,1
2023-01-17T03:43:22.329Z,1
2023-01-17T03:44:22.355Z,1
2023-01-17T03:45:22.344Z,3
2023-01-17T03:46:22.338Z,1
2023-01-17T03:47:22.333Z,4
2023-01-17T03:48:22.329Z,1
2023-01-17T03:49:22.326Z,1
2023-01-17T03:50:22.326Z,1
2023-01-17T03:54:22.318Z,4
2023-01-17T03:55:22.329Z,2
2023-01-17T03:56:22.319Z,4
2023-01-17T03:57:22.333Z,4
2023-01-17T03:58:22.320Z,4
2023-01-17T03:59:22.331Z,7
2023-01-17T04:00:22.334Z,4
2023-01-17T04:01:22.446Z,5
2023-01-17T04:02:22.367Z,5
2023-01-17T04:03:22.325Z,6
2023-01-17T04:04:22.372Z,7
2023-01-17T04:05:22.328Z,4
2023-01-17T04:06:22.336Z,7
2023-01-17T04:07:22.377Z,6
2023-01-17T04:08:22.337Z,8
2023-01-17T04:09:22.363Z,10
2023-01-17T04:10:22.323Z,10
2023-01-17T04:11:22.328Z,12
2023-01-17T04:12:22.321Z,19
2023-01-17T04:14:22.337Z,21
2023-01-17T04:15:22.317Z,19
2023-01-17T04:16:22.364Z,12
2023-01-17T04:17:22.324Z,17
2023-01-17T04:18:22.319Z,15
2023-01-17T04:19:22.331Z,18
2023-01-17T04:20:22.318Z,19
2023-01-17T04:21:22.362Z,12
2023-01-17T04:23:22.323Z,18
2023-01-17T04:24:22.331Z,12
2023-01-17T04:25:22.336Z,12
2023-01-17T04:26:22.319Z,15
2023-01-17T04:27:22.321Z,11
2023-01-17T04:28:22.326Z,13
2023-01-17T04:30:22.317Z,9
2023-01-17T04:31:22.381Z,12
2023-01-17T04:32:22.310Z,9
2023-01-17T04:33:22.330Z,14
2023-01-17T04:35:22.351Z,7
2023-01-17T04:36:22.329Z,7
2023-01-17T04:37:22.318Z,12
2023-01-17T04:38:22.310Z,8
2023-01-17T04:39:22.386Z,8
2023-01-17T04:40:22.354Z,8
2023-01-17T04:41:22.337Z,7
2023-01-17T04:42:22.314Z,12
2023-01-17T04:43:22.328Z,5
2023-01-17T04:45:22.313Z,7
2023-01-17T04:46:22.362Z,7
2023-01-17T04:47:22.316Z,7
2023-01-17T04:48:22.309Z,7
2023-01-17T04:50:22.309Z,5
2023-01-17T04:51:22.314Z,7
2023-01-17T04:52:22.629Z,4
2023-01-17T04:53:22.321Z,7
2023-01-17T04:55:22.310Z,7
2023-01-17T04:56:22.311Z,8
2023-01-17T04:58:22.325Z,10
2023-01-17T04:59:22.316Z,8
2023-01-17T05:00:24.156Z,6
2023-01-17T05:03:22.313Z,7
2023-01-17T05:04:22.311Z,11
2023-01-17T05:06:22.395Z,6
2023-01-17T05:07:22.309Z,9
2023-01-17T05:08:22.316Z,9
2023-01-17T05:09:22.318Z,6
2023-01-17T05:11:22.333Z,7
2023-01-17T05:12:22.315Z,6
2023-01-17T05:13:22.313Z,10
2023-01-17T05:14:22.308Z,9
2023-01-17T05:15:22.331Z,13
2023-01-17T05:16:22.314Z,6
2023-01-17T05:17:22.319Z,6
2023-01-17T05:18:22.305Z,6
2023-01-17T05:19:22.325Z,5
2023-01-17T05:21:22.308Z,6
2023-01-17T05:22:22.299Z,8
2023-01-17T05:24:22.337Z,8
2023-01-17T05:25:22.313Z,8
2023-01-17T05:27:22.308Z,10
2023-01-17T05:28:22.298Z,6
2023-01-17T05:29:22.315Z,6
2023-01-17T05:30:22.335Z,8
2023-01-17T05:32:22.311Z,5
2023-01-17T05:33:22.323Z,8
2023-01-17T05:35:22.307Z,3
2023-01-17T05:36:22.330Z,6
2023-01-17T05:37:22.334Z,6
2023-01-17T05:38:22.298Z,4
2023-01-17T05:39:22.326Z,8
2023-01-17T05:40:22.314Z,4
2023-01-17T05:41:22.312Z,6
2023-01-17T05:42:22.309Z,6
2023-01-17T05:43:22.337Z,3
2023-01-17T05:44:22.300Z,4
2023-01-17T05:45:22.312Z,4
2023-01-17T05:46:22.473Z,7
2023-01-17T05:48:22.305Z,5
2023-01-17T05:50:22.318Z,4
2023-01-17T05:51:22.395Z,6
2023-01-17T05:52:22.306Z,8
2023-01-17T05:53:22.302Z,4
2023-01-17T05:55:22.299Z,6
2023-01-17T05:56:22.377Z,7
2023-01-17T05:57:22.305Z,7
2023-01-17T05:58:22.320Z,6
2023-01-17T05:59:32.376Z,12
2023-01-17T06:00:22.314Z,11
2023-01-17T06:01:22.413Z,7
2023-01-17T06:02:22.387Z,9
2023-01-17T06:03:22.303Z,12
2023-01-17T06:04:22.344Z,9
2023-01-17T06:05:22.303Z,8
2023-01-17T06:06:22.291Z,7
2023-01-17T06:07:22.296Z,8
2023-01-17T06:08:22.333Z,11
2023-01-17T06:09:22.314Z,7
2023-01-17T06:10:22.327Z,9
2023-01-17T06:11:22.300Z,8
2023-01-17T06:12:22.293Z,7
2023-01-17T06:13:22.301Z,7
2023-01-17T06:14:22.308Z,7
2023-01-17T06:15:22.305Z,10
2023-01-17T06:16:22.378Z,8
2023-01-17T06:17:22.307Z,12
2023-01-17T06:18:22.309Z,11
2023-01-17T06:19:22.287Z,10
2023-01-17T06:20:22.293Z,12
2023-01-17T06:21:22.307Z,11
2023-01-17T06:22:22.293Z,14
2023-01-17T06:23:22.312Z,14
2023-01-17T06:24:22.306Z,15
2023-01-17T06:25:22.299Z,12
2023-01-17T06:26:22.387Z,13
2023-01-17T06:27:22.301Z,12
2023-01-17T06:28:22.330Z,10
2023-01-17T06:29:22.307Z,13
2023-01-17T06:30:22.296Z,16
2023-01-17T06:32:22.333Z,10
2023-01-17T06:33:22.300Z,12
2023-01-17T06:34:22.290Z,14
2023-01-17T06:35:22.296Z,13
2023-01-17T06:36:22.301Z,11
2023-01-17T06:37:22.310Z,15
2023-01-17T06:38:22.301Z,13
2023-01-17T06:39:22.320Z,14
2023-01-17T06:40:22.322Z,13
2023-01-17T06:41:22.292Z,14
2023-01-17T06:42:22.304Z,12
2023-01-17T06:43:22.296Z,11
2023-01-17T06:44:22.310Z,11
2023-01-17T06:45:22.301Z,8
2023-01-17T06:46:22.315Z,13
2023-01-17T06:47:22.283Z,15
2023-01-17T06:48:22.339Z,13
2023-01-17T06:49:22.280Z,14
2023-01-17T06:50:22.290Z,10
2023-01-17T06:51:22.293Z,13
2023-01-17T06:52:22.279Z,16
2023-01-17T06:53:22.303Z,11
2023-01-17T06:54:22.286Z,14
2023-01-17T06:55:22.288Z,12
2023-01-17T06:56:22.294Z,18
2023-01-17T06:57:22.310Z,13
2023-01-17T06:58:22.302Z,20
2023-01-17T06:59:22.293Z,17
2023-01-17T07:01:22.456Z,14
2023-01-17T07:02:22.283Z,14
2023-01-17T07:03:22.287Z,13
2023-01-17T07:04:22.295Z,14
2023-01-17T07:05:22.282Z,17
2023-01-17T07:06:22.276Z,14
2023-01-17T07:07:22.286Z,12
2023-01-17T07:08:22.312Z,16
2023-01-17T07:10:22.323Z,16
2023-01-17T07:12:22.293Z,14
2023-01-17T07:14:22.300Z,19
2023-01-17T07:15:22.338Z,14
2023-01-17T07:16:22.338Z,13
2023-01-17T07:17:22.285Z,17
2023-01-17T07:20:22.298Z,18
2023-01-17T07:21:22.288Z,18
2023-01-17T07:22:22.282Z,16
2023-01-17T07:23:22.280Z,17
2023-01-17T07:25:22.284Z,16
2023-01-17T07:26:22.295Z,17
2023-01-17T07:28:22.296Z,17
2023-01-17T07:29:22.300Z,18
2023-01-17T07:30:22.302Z,22
2023-01-17T07:34:22.290Z,23
2023-01-17T07:35:22.277Z,21
2023-01-17T07:36:22.293Z,24
2023-01-17T07:37:22.283Z,26
2023-01-17T07:38:22.397Z,28
2023-01-17T07:40:22.305Z,22
2023-01-17T07:41:22.307Z,22
2023-01-17T07:42:24.093Z,24
2023-01-17T07:43:22.276Z,24
2023-01-17T07:44:22.285Z,24
2023-01-17T07:45:22.277Z,23
2023-01-17T07:46:22.285Z,26
2023-01-17T07:47:22.288Z,25
2023-01-17T07:48:22.313Z,24
2023-01-17T07:49:22.279Z,27
2023-01-17T07:50:22.270Z,26
2023-01-17T07:51:22.276Z,25
2023-01-17T07:52:22.282Z,25
2023-01-17T07:53:22.304Z,24
2023-01-17T07:54:22.277Z,24
2023-01-17T07:55:22.277Z,24
2023-01-17T07:56:22.293Z,26
2023-01-17T07:57:22.276Z,26
2023-01-17T07:58:22.274Z,24
2023-01-17T07:59:22.269Z,22
2023-01-17T08:02:22.278Z,31
2023-01-17T08:03:22.280Z,26
2023-01-17T08:04:22.281Z,27
2023-01-17T08:06:22.279Z,25
2023-01-17T08:07:22.278Z,29
2023-01-17T08:08:22.269Z,28
2023-01-17T08:09:22.271Z,26
2023-01-17T08:10:22.272Z,24
2023-01-17T08:11:22.293Z,25
2023-01-17T08:12:22.319Z,24
2023-01-17T08:13:22.297Z,27
2023-01-17T08:14:22.288Z,27
2023-01-17T08:15:22.275Z,29
2023-01-17T08:16:22.343Z,25
2023-01-17T08:17:22.274Z,29
2023-01-17T08:18:22.283Z,30
2023-01-17T08:19:22.278Z,28
2023-01-17T08:20:22.317Z,31
2023-01-17T08:21:22.272Z,27
2023-01-17T08:22:22.278Z,31
2023-01-17T08:23:22.270Z,28
2023-01-17T08:24:22.307Z,31
2023-01-17T08:25:22.289Z,31
2023-01-17T08:26:22.486Z,27
2023-01-17T08:27:22.279Z,27
2023-01-17T08:28:22.266Z,33
2023-01-17T08:29:22.275Z,29
2023-01-17T08:30:22.353Z,34
2023-01-17T08:32:22.272Z,32
2023-01-17T08:33:22.262Z,25
2023-01-17T08:34:22.267Z,26
2023-01-17T08:35:22.282Z,33
2023-01-17T08:36:22.304Z,28
2023-01-17T08:37:22.265Z,31
2023-01-17T08:38:22.275Z,25
2023-01-17T08:40:22.262Z,28
2023-01-17T08:41:22.270Z,27
2023-01-17T08:42:22.277Z,23
2023-01-17T08:43:22.300Z,22
2023-01-17T08:45:22.264Z,26
2023-01-17T08:46:22.272Z,23
2023-01-17T08:48:22.266Z,28
2023-01-17T08:49:22.261Z,30
2023-01-17T08:50:22.264Z,23
2023-01-17T08:51:22.265Z,26
2023-01-17T08:53:22.285Z,27
2023-01-17T08:54:22.277Z,26
2023-01-17T08:55:22.283Z,29
2023-01-17T08:56:22.276Z,24
2023-01-17T08:57:22.271Z,24
2023-01-17T08:58:22.277Z,25
2023-01-17T08:59:22.293Z,21
2023-01-17T09:01:22.417Z,26
2023-01-17T09:02:22.261Z,26
2023-01-17T09:04:22.333Z,27
2023-01-17T09:05:22.331Z,23
2023-01-17T09:06:22.285Z,22
2023-01-17T09:07:22.262Z,22
2023-01-17T09:08:22.262Z,23
2023-01-17T09:09:22.266Z,24
2023-01-17T09:10:22.260Z,22
2023-01-17T09:11:22.255Z,24
2023-01-17T09:12:22.265Z,21
2023-01-17T09:13:22.269Z,15
2023-01-17T09:14:22.281Z,20
2023-01-17T09:15:22.279Z,22
2023-01-17T09:16:22.413Z,20
2023-01-17T09:17:22.265Z,17
2023-01-17T09:18:22.259Z,19
2023-01-17T09:19:22.288Z,21
2023-01-17T09:20:22.263Z,20
2023-01-17T09:21:22.258Z,16
2023-01-17T09:22:22.257Z,16
2023-01-17T09:23:22.258Z,14
2023-01-17T09:24:23.301Z,15
2023-01-17T09:25:22.268Z,15
2023-01-17T09:26:22.258Z,19
2023-01-17T09:27:22.282Z,21
2023-01-17T09:28:22.265Z,19
2023-01-17T09:29:22.262Z,19
2023-01-17T09:30:22.292Z,16
2023-01-17T09:31:22.270Z,16
2023-01-17T09:32:22.255Z,20
2023-01-17T09:33:22.273Z,18
2023-01-17T09:34:22.253Z,20
2023-01-17T09:35:22.251Z,23
2023-01-17T09:36:22.264Z,19
2023-01-17T09:37:22.345Z,20
2023-01-17T09:38:22.265Z,20
2023-01-17T09:39:22.252Z,22
2023-01-17T09:40:22.251Z,18
2023-01-17T09:41:22.253Z,22
2023-01-17T09:43:22.250Z,23
2023-01-17T09:44:22.260Z,32
2023-01-17T09:45:22.253Z,24
2023-01-17T09:47:22.309Z,24
2023-01-17T09:48:22.258Z,23
2023-01-17T09:49:22.248Z,20
2023-01-17T09:50:22.254Z,27
2023-01-17T09:51:22.250Z,19
2023-01-17T09:52:22.258Z,19
2023-01-17T09:53:22.267Z,24
2023-01-17T09:54:22.267Z,23
2023-01-17T09:55:22.246Z,23
2023-01-17T09:56:22.253Z,22
2023-01-17T09:57:22.255Z,22
2023-01-17T09:58:22.251Z,18
2023-01-17T09:59:32.013Z,21
2023-01-17T10:01:22.483Z,20
2023-01-17T10:02:24.984Z,23
2023-01-17T10:03:22.342Z,19
2023-01-17T10:04:22.346Z,21
2023-01-17T10:05:22.257Z,24
2023-01-17T10:06:22.263Z,25
2023-01-17T10:07:22.253Z,24
2023-01-17T10:09:22.262Z,21
2023-01-17T10:10:22.271Z,22
2023-01-17T10:11:22.263Z,18
2023-01-17T10:12:22.258Z,20
2023-01-17T10:13:22.261Z,23
2023-01-17T10:14:22.265Z,17
2023-01-17T10:15:22.274Z,21
2023-01-17T10:17:22.265Z,19
2023-01-17T10:18:29.853Z,24
2023-01-17T10:19:22.250Z,18
2023-01-17T10:20:22.250Z,19
2023-01-17T10:21:22.271Z,16
2023-01-17T10:22:22.285Z,18
2023-01-17T10:23:22.248Z,15
2023-01-17T10:25:22.269Z,20
2023-01-17T10:26:22.273Z,20
2023-01-17T10:27:22.264Z,22
2023-01-17T10:28:22.254Z,16
2023-01-17T10:30:22.259Z,14
2023-01-17T10:31:22.251Z,19
2023-01-17T10:33:22.262Z,17
2023-01-17T10:34:22.292Z,15
2023-01-17T10:35:22.255Z,16
2023-01-17T10:36:22.250Z,16
2023-01-17T10:37:22.252Z,16
2023-01-17T10:38:22.250Z,15
2023-01-17T10:39:22.251Z,19
2023-01-17T10:40:22.243Z,16
2023-01-17T10:41:22.274Z,15
2023-01-17T10:42:22.256Z,17
2023-01-17T10:43:22.271Z,17
2023-01-17T10:44:22.270Z,18
2023-01-17T10:45:22.275Z,20
2023-01-17T10:46:22.322Z,21
2023-01-17T10:47:22.261Z,17
2023-01-17T10:48:23.267Z,19
2023-01-17T10:49:22.266Z,22
2023-01-17T10:50:22.640Z,19
2023-01-17T10:51:22.265Z,20
2023-01-17T10:52:22.255Z,18
2023-01-17T10:53:22.250Z,22
2023-01-17T10:54:22.259Z,17
2023-01-17T10:55:22.265Z,19
2023-01-17T10:56:22.263Z,18
2023-01-17T10:57:22.257Z,18
2023-01-17T10:58:22.256Z,21
2023-01-17T10:59:22.253Z,18
2023-01-17T11:00:22.263Z,19
2023-01-17T11:01:22.407Z,17
2023-01-17T11:02:22.365Z,18
2023-01-17T11:03:22.281Z,21
2023-01-17T11:04:22.253Z,17
2023-01-17T11:05:22.258Z,19
2023-01-17T11:06:22.269Z,17
2023-01-17T11:07:22.246Z,16
2023-01-17T11:08:22.274Z,14
2023-01-17T11:09:22.256Z,18
2023-01-17T11:10:22.250Z,20
2023-01-17T11:11:22.257Z,22
2023-01-17T11:12:22.248Z,21
2023-01-17T11:13:22.275Z,23
2023-01-17T11:14:22.255Z,23
2023-01-17T11:15:22.258Z,22
2023-01-17T11:16:22.251Z,19
2023-01-17T11:17:22.250Z,21
2023-01-17T11:18:22.256Z,20
2023-01-17T11:19:22.272Z,21
2023-01-17T11:20:22.252Z,17
2023-01-17T11:21:22.263Z,17
2023-01-17T11:22:22.263Z,18
2023-01-17T11:23:22.247Z,16
2023-01-17T11:25:22.278Z,18
2023-01-17T11:26:22.290Z,18
2023-01-17T11:27:22.253Z,19
2023-01-17T11:28:22.265Z,20
2023-01-17T11:29:22.255Z,16
2023-01-17T11:30:22.264Z,19
2023-01-17T11:31:22.390Z,18
2023-01-17T11:32:22.268Z,20
2023-01-17T11:33:22.259Z,16
2023-01-17T11:34:22.306Z,21
2023-01-17T11:35:22.253Z,22
2023-01-17T11:36:22.287Z,14
2023-01-17T11:37:22.261Z,14
2023-01-17T11:38:22.254Z,17
2023-01-17T11:39:22.282Z,14
2023-01-17T11:40:22.255Z,14
2023-01-17T11:41:22.268Z,15
2023-01-17T11:42:22.251Z,17
2023-01-17T11:44:22.289Z,21
2023-01-17T11:45:22.257Z,15
2023-01-17T11:46:22.394Z,14
2023-01-17T11:47:22.261Z,17
2023-01-17T11:48:22.262Z,20
2023-01-17T11:49:22.262Z,14
2023-01-17T11:50:22.267Z,17
2023-01-17T11:51:22.251Z,17
2023-01-17T11:53:22.251Z,24
2023-01-17T11:54:22.257Z,17
2023-01-17T11:56:22.249Z,19
2023-01-17T11:57:22.316Z,17
2023-01-17T11:58:22.255Z,21
2023-01-17T11:59:22.267Z,15
2023-01-17T12:01:22.382Z,16
2023-01-17T12:02:22.261Z,23
2023-01-17T12:03:22.252Z,19
2023-01-17T12:04:22.251Z,23
2023-01-17T12:06:22.257Z,14
2023-01-17T12:07:22.259Z,19
2023-01-17T12:09:22.263Z,19
2023-01-17T12:10:22.248Z,20
2023-01-17T12:11:22.256Z,18
2023-01-17T12:12:22.270Z,19
2023-01-17T12:15:22.248Z,23
2023-01-17T12:16:22.245Z,20
2023-01-17T12:17:22.281Z,23
2023-01-17T12:20:22.763Z,20
2023-01-17T12:22:22.337Z,19
2023-01-17T12:23:22.253Z,17
2023-01-17T12:24:22.261Z,21
2023-01-17T12:25:22.254Z,18
2023-01-17T12:26:22.255Z,18
2023-01-17T12:27:22.258Z,22
2023-01-17T12:28:22.257Z,18
2023-01-17T12:29:22.267Z,21
2023-01-17T12:30:22.245Z,17
2023-01-17T12:31:22.386Z,19
2023-01-17T12:32:22.320Z,15
2023-01-17T12:33:22.273Z,16
2023-01-17T12:34:22.278Z,17
2023-01-17T12:35:22.244Z,21
2023-01-17T12:36:22.285Z,14
2023-01-17T12:37:22.277Z,20
2023-01-17T12:38:32.045Z,17
2023-01-17T12:39:22.269Z,19
2023-01-17T12:40:22.249Z,17
2023-01-17T12:41:22.248Z,21
2023-01-17T12:42:22.293Z,21
2023-01-17T12:43:22.603Z,17
2023-01-17T12:44:22.251Z,21
2023-01-17T12:45:22.288Z,19
2023-01-17T12:46:22.290Z,17
2023-01-17T12:47:22.287Z,16
2023-01-17T12:48:22.258Z,16
2023-01-17T12:49:22.274Z,12
2023-01-17T12:50:22.250Z,12
2023-01-17T12:54:22.528Z,19
2023-01-17T12:55:22.265Z,18
2023-01-17T12:56:22.263Z,13
2023-01-17T12:57:22.514Z,20
2023-01-17T12:58:22.404Z,15
2023-01-17T12:59:22.250Z,19
2023-01-17T13:00:22.359Z,18
2023-01-17T13:06:22.288Z,20
2023-01-17T13:07:22.295Z,28
2023-01-17T13:08:22.243Z,18
2023-01-17T13:09:23.935Z,22
2023-01-17T13:10:22.253Z,20
2023-01-17T13:11:22.270Z,21
2023-01-17T13:13:22.263Z,23
2023-01-17T13:14:22.286Z,28
2023-01-17T13:15:22.257Z,25
2023-01-17T13:16:22.355Z,20
2023-01-17T13:17:22.255Z,21
2023-01-17T13:18:22.249Z,23
2023-01-17T13:19:22.285Z,22
2023-01-17T13:20:22.245Z,22
2023-01-17T13:21:22.257Z,18
2023-01-17T13:22:22.250Z,22
2023-01-17T13:23:22.252Z,18
2023-01-17T13:24:22.255Z,23
2023-01-17T13:25:22.287Z,27
2023-01-17T13:26:22.253Z,19
2023-01-17T13:27:22.258Z,28
2023-01-17T13:28:22.267Z,20
2023-01-17T13:29:22.321Z,20
2023-01-17T13:31:22.312Z,24
2023-01-17T13:33:22.302Z,16
2023-01-17T13:35:22.257Z,17
2023-01-17T13:36:22.272Z,19
2023-01-17T13:38:22.258Z,15
2023-01-17T13:39:22.252Z,17
2023-01-17T13:40:22.529Z,13
2023-01-17T13:41:22.400Z,15
2023-01-17T13:43:22.696Z,13
2023-01-17T13:44:22.611Z,16
2023-01-17T13:45:22.551Z,23
2023-01-17T13:46:22.515Z,13
2023-01-17T13:48:22.266Z,12
2023-01-17T13:49:22.306Z,21
2023-01-17T13:51:22.249Z,17
2023-01-17T13:52:22.404Z,11
2023-01-17T13:53:22.399Z,14
2023-01-17T13:54:22.268Z,14
2023-01-17T13:56:22.425Z,11
2023-01-17T13:57:22.256Z,13
2023-01-17T13:58:22.261Z,15
2023-01-17T13:59:22.253Z,16
2023-01-17T14:00:22.271Z,15
2023-01-17T14:01:22.561Z,12
2023-01-17T14:02:22.247Z,13
2023-01-17T14:04:22.391Z,11
2023-01-17T14:07:22.251Z,29
2023-01-17T14:08:22.424Z,24
2023-01-17T14:09:22.393Z,22
2023-01-17T14:10:22.260Z,25
2023-01-17T14:11:22.383Z,12
2023-01-17T14:12:22.393Z,14
2023-01-17T14:13:22.251Z,9
2023-01-17T14:14:22.448Z,15
2023-01-17T14:15:22.392Z,13
2023-01-17T14:16:22.478Z,13
2023-01-17T14:17:22.402Z,8
2023-01-17T14:18:22.492Z,11
2023-01-17T14:19:22.508Z,11
2023-01-17T14:49:22.342Z,12
2023-01-17T14:50:22.278Z,11
2023-01-17T14:51:22.265Z,11
2023-01-17T14:52:22.252Z,14
2023-01-17T14:53:22.416Z,12
2023-01-17T14:54:22.397Z,13
2023-01-17T14:55:22.250Z,9
2023-01-17T14:56:22.297Z,11
2023-01-17T14:57:22.543Z,9
2023-01-17T14:58:22.398Z,14
2023-01-17T15:00:23.599Z,8
2023-01-17T15:01:22.362Z,15
2023-01-17T15:02:22.507Z,11
2023-01-17T15:03:22.624Z,9
2023-01-17T15:04:22.382Z,12
2023-01-17T15:05:23.579Z,13
2023-01-17T15:06:22.546Z,16
2023-01-17T15:07:22.363Z,16
2023-01-17T15:08:22.395Z,10
2023-01-17T15:09:22.432Z,11
2023-01-17T15:10:22.252Z,12
2023-01-17T15:11:22.258Z,10
2023-01-17T15:12:22.256Z,7
2023-01-17T15:13:27.798Z,10
2023-01-17T15:14:22.250Z,16
2023-01-17T15:15:22.391Z,14
2023-01-17T15:16:22.552Z,12
2023-01-17T15:17:22.504Z,11
2023-01-17T15:18:22.436Z,15
2023-01-17T15:19:22.251Z,19
2023-01-17T15:20:22.253Z,19
2023-01-17T15:22:22.396Z,13
2023-01-17T15:23:22.350Z,12
2023-01-17T15:24:22.260Z,12
2023-01-17T15:25:22.436Z,12
2023-01-17T15:26:22.542Z,19
2023-01-17T15:27:22.398Z,12
2023-01-17T15:28:22.414Z,15
2023-01-17T16:06:22.404Z,22
2023-01-17T16:08:22.346Z,16
2023-01-17T16:09:22.401Z,15
2023-01-17T16:10:22.257Z,18
2023-01-17T16:11:22.259Z,17
2023-01-17T16:12:22.253Z,17
2023-01-17T16:13:22.252Z,18
2023-01-17T16:14:22.271Z,16
2023-01-17T16:16:22.592Z,14
2023-01-17T16:17:22.234Z,15
2023-01-17T16:18:22.338Z,17
2023-01-17T16:19:22.242Z,22
2023-01-17T16:20:22.272Z,20
2023-01-17T16:21:22.247Z,22
2023-01-17T16:22:22.244Z,23
2023-01-17T16:23:22.251Z,20
2023-01-17T16:24:22.247Z,21
2023-01-17T16:25:22.297Z,20
2023-01-17T16:26:22.258Z,21
2023-01-17T16:27:22.242Z,19
2023-01-17T16:28:22.237Z,18
2023-01-17T16:29:22.343Z,21
2023-01-17T16:30:22.269Z,27
2023-01-17T16:31:22.351Z,23
2023-01-17T16:32:22.349Z,27
2023-01-17T16:33:22.826Z,29
2023-01-17T16:34:22.255Z,22
2023-01-17T16:35:22.241Z,23
2023-01-17T16:36:22.243Z,60
2023-01-17T16:37:22.244Z,74
2023-01-17T16:38:22.253Z,65
2023-01-17T16:39:22.254Z,55
2023-01-17T16:40:22.244Z,55
2023-01-17T16:41:22.280Z,53
2023-01-17T16:42:22.248Z,51
2023-01-17T16:43:22.240Z,53
2023-01-17T16:44:22.242Z,44
2023-01-17T16:45:22.280Z,39
2023-01-17T16:46:22.279Z,29
2023-01-17T16:47:22.499Z,31
2023-01-17T16:48:22.270Z,28
2023-01-17T16:49:22.253Z,32
2023-01-17T16:50:22.302Z,27
2023-01-17T16:51:22.360Z,27
2023-01-17T16:52:22.284Z,29
2023-01-17T16:53:24.513Z,30
2023-01-17T16:54:22.240Z,28
2023-01-17T16:55:22.632Z,35
2023-01-17T16:56:22.253Z,27
2023-01-17T16:57:22.250Z,36
2023-01-17T16:58:22.242Z,32
2023-01-17T16:59:22.252Z,36
2023-01-17T17:00:22.261Z,30
2023-01-17T17:01:22.451Z,27
2023-01-17T17:02:22.300Z,32
2023-01-17T17:03:22.273Z,33
2023-01-17T17:04:22.239Z,33
2023-01-17T17:05:22.255Z,28
2023-01-17T17:06:22.352Z,32
2023-01-17T17:07:22.268Z,29
2023-01-17T17:08:22.253Z,22
2023-01-17T17:09:22.243Z,26
2023-01-17T17:10:22.281Z,26
2023-01-17T17:11:22.253Z,27
2023-01-17T17:12:22.251Z,20
2023-01-17T17:13:22.247Z,26
2023-01-17T17:14:22.241Z,23
2023-01-17T17:15:22.320Z,23
2023-01-17T17:16:22.261Z,27
2023-01-17T17:17:22.258Z,26
2023-01-17T17:19:22.238Z,28
2023-01-17T17:20:25.035Z,28
2023-01-17T17:21:22.253Z,26
2023-01-17T17:22:22.233Z,22
2023-01-17T17:23:22.236Z,26
2023-01-17T17:24:22.236Z,26
2023-01-17T17:25:22.295Z,26
2023-01-17T17:26:22.305Z,33
2023-01-17T17:27:22.240Z,27
2023-01-17T17:28:22.488Z,29
2023-01-17T17:29:22.239Z,30
2023-01-17T17:30:22.255Z,31
2023-01-17T17:31:22.378Z,29
2023-01-17T17:33:22.402Z,31
2023-01-17T17:34:22.253Z,32